createdAt,value
2023-03-07T00:05:01.499Z,0
2023-03-07T00:10:05.648Z,0
2023-03-07T00:15:09.788Z,0
2023-03-07T00:20:13.938Z,0
2023-03-07T00:25:18.135Z,0
2023-03-07T00:30:22.320Z,0
2023-03-07T00:35:26.459Z,0
2023-03-07T00:40:30.643Z,0
2023-03-07T00:45:34.817Z,0
2023-03-07T00:50:38.933Z,0
2023-03-07T00:55:43.105Z,0
2023-03-07T01:00:47.279Z,0
2023-03-07T01:10:55.583Z,0
2023-03-07T01:15:59.773Z,0
2023-03-07T01:21:02.030Z,0
2023-03-07T01:26:06.196Z,0
2023-03-07T01:31:08.473Z,0
2023-03-07T01:36:12.676Z,0
2023-03-07T01:41:16.811Z,0
2023-03-07T01:46:20.967Z,0
2023-03-07T01:51:25.150Z,0
2023-03-07T01:56:29.330Z,0
2023-03-07T02:01:33.545Z,0
2023-03-07T02:06:37.630Z,0
2023-03-07T02:11:41.773Z,0
2023-03-07T02:16:45.928Z,0
2023-03-07T02:21:50.126Z,0
2023-03-07T02:26:54.289Z,0
2023-03-07T02:31:58.481Z,0
2023-03-07T02:37:02.584Z,0
2023-03-07T02:42:06.778Z,0
2023-03-07T02:47:10.910Z,0
2023-03-07T02:52:15.078Z,0
2023-03-07T02:57:19.257Z,0
2023-03-07T03:02:23.395Z,0
2023-03-07T03:07:27.630Z,0
2023-03-07T03:12:31.751Z,0
2023-03-07T03:17:34.034Z,0
2023-03-07T03:22:38.208Z,0
2023-03-07T03:27:40.477Z,0
2023-03-07T03:32:44.643Z,0
2023-03-07T03:37:48.809Z,0
2023-03-07T03:42:52.963Z,0
2023-03-07T03:47:57.175Z,0
2023-03-07T03:58:05.459Z,0
2023-03-07T04:03:09.763Z,0
2023-03-07T04:08:13.794Z,0
2023-03-07T04:13:17.943Z,0
2023-03-07T04:18:22.138Z,0
2023-03-07T04:23:26.283Z,0
2023-03-07T04:28:30.417Z,0
2023-03-07T04:33:34.611Z,0
2023-03-07T04:38:38.734Z,0
2023-03-07T04:43:42.982Z,0
2023-03-07T04:48:47.102Z,0
2023-03-07T04:53:51.265Z,0
2023-03-07T04:58:55.414Z,0
2023-03-07T05:03:59.683Z,0
2023-03-07T05:09:03.762Z,0
2023-03-07T05:14:07.895Z,0
2023-03-07T05:19:10.183Z,0
2023-03-07T05:29:18.549Z,0
2023-03-07T05:34:22.669Z,0
2023-03-07T05:39:26.819Z,0
2023-03-07T05:44:32.598Z,0
2023-03-07T05:49:33.386Z,0
2023-03-07T05:54:37.445Z,2
2023-03-07T05:59:41.629Z,7
2023-03-07T06:04:45.795Z,14
2023-03-07T06:09:49.916Z,23
2023-03-07T06:14:54.131Z,47
2023-03-07T06:19:58.253Z,60
2023-03-07T06:25:02.421Z,67
2023-03-07T06:30:06.600Z,135
2023-03-07T06:35:10.761Z,233
2023-03-07T06:40:14.934Z,258
2023-03-07T06:45:19.092Z,303
2023-03-07T06:50:33.445Z,331
2023-03-07T06:55:27.394Z,240
2023-03-07T07:00:31.576Z,427
2023-03-07T07:05:35.734Z,477
2023-03-07T07:10:39.882Z,411
2023-03-07T07:15:44.071Z,780
2023-03-07T07:20:48.245Z,1435
2023-03-07T07:25:52.389Z,867
2023-03-07T07:30:56.575Z,1011
2023-03-07T07:35:58.973Z,1024
2023-03-07T07:41:02.994Z,1068
2023-03-07T07:46:07.216Z,1178
2023-03-07T07:51:09.426Z,1184
2023-03-07T07:56:13.624Z,1122
2023-03-07T08:01:17.794Z,1820
2023-03-07T08:06:21.992Z,953
2023-03-07T08:11:26.093Z,1207
2023-03-07T08:16:30.297Z,894
2023-03-07T08:21:34.434Z,911
2023-03-07T08:26:38.601Z,1130
2023-03-07T08:31:42.802Z,1202
2023-03-07T08:36:46.920Z,1105
2023-03-07T08:41:51.082Z,1525
2023-03-07T08:46:55.227Z,1394
2023-03-07T08:51:59.430Z,1111
2023-03-07T08:57:03.566Z,1260
2023-03-07T09:02:07.802Z,1708
2023-03-07T09:12:16.036Z,2091
2023-03-07T09:17:20.207Z,1430
2023-03-07T09:22:24.411Z,1668
2023-03-07T09:27:28.544Z,1648
2023-03-07T09:32:32.775Z,1604
2023-03-07T09:37:36.953Z,1305
2023-03-07T09:42:39.177Z,1021
2023-03-07T09:47:41.428Z,1024
2023-03-07T09:52:43.740Z,1765
2023-03-07T09:57:47.909Z,2804
2023-03-07T10:02:52.068Z,3918
2023-03-07T10:07:56.216Z,5492
2023-03-07T10:13:00.402Z,3450
2023-03-07T10:18:04.905Z,2641
2023-03-07T10:23:08.681Z,2563
2023-03-07T10:28:12.864Z,2485
2023-03-07T10:33:17.021Z,3817
2023-03-07T10:38:21.281Z,5230
2023-03-07T10:43:25.366Z,4331
2023-03-07T10:48:29.520Z,6200
2023-03-07T10:53:33.702Z,4452
2023-03-07T10:58:37.823Z,3725
2023-03-07T11:03:52.032Z,3217
2023-03-07T11:08:46.189Z,3495
2023-03-07T11:13:50.336Z,4387
2023-03-07T11:18:54.489Z,4466
2023-03-07T11:23:58.800Z,4138
2023-03-07T11:29:02.851Z,3885
2023-03-07T11:34:06.991Z,5022
2023-03-07T11:39:09.227Z,4185
2023-03-07T11:44:13.460Z,4366
2023-03-07T11:49:18.688Z,4056
2023-03-07T11:54:19.866Z,4340
2023-03-07T11:59:24.015Z,3036
2023-03-07T12:04:28.228Z,4395
2023-03-07T12:09:32.370Z,5490
2023-03-07T12:14:36.525Z,5365
2023-03-07T12:19:40.709Z,5043
2023-03-07T12:24:44.864Z,4580
2023-03-07T12:29:49.007Z,4516
2023-03-07T12:34:53.181Z,4241
2023-03-07T12:39:57.333Z,4447
2023-03-07T12:45:01.535Z,5214
2023-03-07T12:50:05.661Z,4697
2023-03-07T12:55:09.867Z,3755
2023-03-07T13:00:14.020Z,4756
2023-03-07T13:05:18.188Z,4476
2023-03-07T13:10:22.308Z,4780
2023-03-07T13:15:26.512Z,3871
2023-03-07T13:20:30.677Z,4086
2023-03-07T13:25:34.836Z,4893
2023-03-07T13:30:39.022Z,5471
2023-03-07T13:35:41.300Z,5615
2023-03-07T13:40:45.449Z,5220
2023-03-07T13:45:49.745Z,4668
2023-03-07T13:50:51.882Z,4965
2023-03-07T14:01:00.331Z,4107
2023-03-07T14:06:04.349Z,4757
2023-03-07T14:11:08.548Z,4530
2023-03-07T14:16:12.756Z,4288
2023-03-07T14:21:16.879Z,3172
2023-03-07T14:26:21.021Z,3546
2023-03-07T14:31:25.300Z,2743
2023-03-07T14:36:29.356Z,2477
2023-03-07T14:41:33.525Z,2990
2023-03-07T14:46:37.739Z,2851
2023-03-07T14:51:41.853Z,2555
2023-03-07T14:56:46.045Z,2708
2023-03-07T15:06:54.356Z,2380
2023-03-07T15:11:58.509Z,2253
2023-03-07T15:17:02.658Z,1842
2023-03-07T15:22:06.876Z,1946
2023-03-07T15:27:10.997Z,1805
2023-03-07T15:32:15.220Z,2147
2023-03-07T15:37:19.349Z,2115
2023-03-07T15:42:23.584Z,1828
2023-03-07T15:47:25.792Z,1872
2023-03-07T15:52:29.922Z,1669
2023-03-07T15:57:32.218Z,1519
2023-03-07T16:02:36.506Z,1469
2023-03-07T16:07:40.517Z,1206
2023-03-07T16:12:44.711Z,1121
2023-03-07T16:17:48.858Z,1040
2023-03-07T16:22:53.045Z,795
2023-03-07T16:27:57.192Z,758
2023-03-07T16:33:01.369Z,826
2023-03-07T16:38:05.506Z,597
2023-03-07T16:48:13.897Z,332
2023-03-07T16:53:18.011Z,357
2023-03-07T16:58:22.186Z,304
2023-03-07T17:03:26.377Z,225
2023-03-07T17:08:30.512Z,138
2023-03-07T17:13:34.716Z,89
2023-03-07T17:18:38.903Z,58
2023-03-07T17:23:43.031Z,31
2023-03-07T17:28:47.265Z,15
2023-03-07T17:33:51.318Z,9
2023-03-07T17:38:55.534Z,6
2023-03-07T17:43:59.666Z,3
2023-03-07T17:49:01.982Z,0
2023-03-07T17:54:06.110Z,0
2023-03-07T17:59:08.396Z,0
2023-03-07T18:04:12.562Z,0
2023-03-07T18:09:16.725Z,0
2023-03-07T18:14:20.887Z,0
2023-03-07T18:19:27.036Z,0
2023-03-07T18:24:29.220Z,0
2023-03-07T18:29:33.376Z,0
2023-03-07T18:34:37.545Z,0
2023-03-07T18:39:41.762Z,0
2023-03-07T18:44:45.855Z,0
2023-03-07T18:49:50.053Z,0
2023-03-07T18:54:54.165Z,0
2023-03-07T18:59:58.362Z,0
2023-03-07T19:05:02.678Z,0
2023-03-07T19:10:06.717Z,0
2023-03-07T19:15:10.885Z,0
2023-03-07T19:20:15.045Z,0
2023-03-07T19:25:19.190Z,0
2023-03-07T19:30:23.399Z,0
2023-03-07T19:35:27.522Z,0
2023-03-07T19:40:31.703Z,0
2023-03-07T19:45:34.120Z,0
2023-03-07T19:50:38.162Z,0
2023-03-07T19:55:40.446Z,0
2023-03-07T20:00:44.594Z,0
2023-03-07T20:05:48.835Z,0
2023-03-07T20:11:00.909Z,0
2023-03-07T20:15:57.168Z,0
2023-03-07T20:21:01.240Z,0
2023-03-07T20:26:05.447Z,0
2023-03-07T20:31:09.641Z,0
2023-03-07T20:36:13.714Z,0
2023-03-07T20:41:17.900Z,0
2023-03-07T20:46:22.141Z,0
2023-03-07T20:51:26.219Z,0
2023-03-07T20:56:30.425Z,0
2023-03-07T21:01:34.582Z,0
2023-03-07T21:06:38.744Z,0
2023-03-07T21:11:42.920Z,0
2023-03-07T21:16:47.079Z,0
2023-03-07T21:21:51.255Z,0
2023-03-07T21:26:55.429Z,0
2023-03-07T21:31:59.571Z,0
2023-03-07T21:37:03.707Z,0
2023-03-07T21:42:05.989Z,0
2023-03-07T21:47:10.170Z,0
2023-03-07T21:52:12.494Z,0
2023-03-07T21:57:16.609Z,0
2023-03-07T22:02:20.761Z,0
2023-03-07T22:07:24.906Z,0
2023-03-07T22:12:29.098Z,0
2023-03-07T22:17:33.262Z,0
2023-03-07T22:27:41.608Z,0
2023-03-07T22:32:45.786Z,0
2023-03-07T22:37:49.937Z,0
2023-03-07T22:42:54.107Z,0
2023-03-07T22:47:58.255Z,0
2023-03-07T22:53:02.440Z,0
2023-03-07T22:58:06.579Z,0
2023-03-07T23:03:10.805Z,0
2023-03-07T23:08:14.905Z,0
2023-03-07T23:13:19.140Z,0
2023-03-07T23:18:23.292Z,0
2023-03-07T23:23:27.426Z,0
2023-03-07T23:28:31.568Z,0
2023-03-07T23:33:35.712Z,0
2023-03-07T23:38:39.898Z,0
2023-03-07T23:43:42.163Z,0
2023-03-07T23:48:46.428Z,0
2023-03-07T23:53:48.651Z,0
2023-03-07T23:58:52.806Z,0
